Daphne, AL

1:19 AM CDT on September 24, 2014 (GMT -0500)
Mobile Regional | Change Station
CLOSE
Current Station
Airport
Location: Mobile,
Elevation: 220 ft
Nearby Weather Stations

Elev 220 ft 30.69 °N, 88.25 °W | Updated 23 minutes ago

Clear
Clear
67 °F
Feels Like 67 °F
N
7
Wind Variable Wind from ENE

Today
High -- | Low -- °F
--% Chance of Precip.
Yesterday
High -- | Low -- °F
Precip. -- in
6:41 AM 6:45 PM
Waning Crescent, 0% visible
Pressure 30.11 in
Visibility 10.0 miles
Clouds Clear
Dew Point 61 °F
Humidity 81%
Rainfall 0.00 in
Snow Depth Not available.
UV 0 out of 12
Pollen 9.20 out of 12
Air Quality Not available.
Flu Activity Not available.
METAR KMOB 240556Z AUTO 07006KT 10SM CLR 19/16 A3011 RMK AO2 SLP195 T01940161 10228 20194 402890144 51002

More Conditions Fewer Conditions

Pressure 30.11 in
Visibility 10.0 miles
Clouds Clear
Dew Point 61 °F
Humidity 81%
Rainfall 0.00 in
Snow Depth Not available.
UV 0 out of 12
Pollen 9.20 out of 12
Air Quality Not available.
Flu Activity Not available.
METAR KMOB 240556Z AUTO 07006KT 10SM CLR 19/16 A3011 RMK AO2 SLP195 T01940161 10228 20194 402890144 51002

More Conditions Fewer Conditions

10-Day Weather Forecast

Almanac

Astronomy

Sep. 24, 2014 Rise Set
Actual Time 6:41 AM CDT 6:45 PM CDT
Civil Twilight 6:16 AM CDT 7:09 PM CDT
Nautical Twilight 5:48 AM CDT 7:37 PM CDT
Astronomical Twilight 5:20 AM CDT 8:05 PM CDT
Moon 6:58 AM CDT 7:00 PM CDT
Length of Visible Light 12h 52m
Length of Day
12h 04m
Tomorrow will be 1m 50s shorter.
Waning Crescent, 0% of the Moon is Illuminated
Today
Waning Crescent
Oct 1
First Quarter
Oct 8
Full
Oct 15
Last Quarter
Oct 23
New

Today's Extremes

State Highs State Lows

Community

WunderPhotos

Upload Photos

1,755,891 photos uploaded!

WunderBlogs® & News

Nearby

Snow Depth

Station Depth Elevation
No new snow has been reported.

Earthquake Activity

City Distance Mag. Time & Date
No recent earthquake activity has been reported nearby.
Minimum magnitude displayed is 2.5.

Coastal Water Temperatures

Place Temperature
Mobile State Docks, AL 84.0 °F
Coast Guard Sector Mobile, AL 82.9 °F

Nearby Weather Stations